Terminal Aerodrome Forecast
Issued by NWS Mt. Holly, NJ

Current Version | Previous Version | Text Only | Print | Product List | Glossary On
Versions: 1 2 3 4 5 6 7 8 9 10 11 12 13 14 15 16 17 18 19 20 21 22 23 24 25 26 27 28 29 30 31 32
000
FTUS41 KPHI 260900 AAA
TAFPHL
TAF AMD
KPHL 260906Z 2609/2712 03008KT P6SM OVC100
      TEMPO 2611/2613 5SM -RA OVC050
     FM261300 03011G18KT 5SM -RA OVC040
     FM261600 04013G23KT 2SM -RASN OVC009
     FM261900 02017G29KT 1SM -SN OVC006
     FM270000 34016G28KT 3SM -SN OVC020
     FM270300 32011KT P6SM BKN025=

USA.gov is the U.S. government's official web portal to all federal, state and local government web resources and services.